Time;durP1;ratioP1;P1;durP2;ratioP2;P2;SDS_P1;SDS_P2;PMS_P1;PMS_P2;Temp;Humidity;BMP_temperature;BMP_pressure;BME280_temperature;BME280_humidity;BME280_pressure;Samples;Min_cycle;Max_cycle;Signal;HPM_P1;HPM_P2
2023/12/02 00:01:56;;;;;;;4.97;2.83;;;;;;;12.57;99.62;64270.81;5053221;28;20589;-56
2023/12/02 00:04:21;;;;;;;4.80;2.40;;;;;;;12.60;98.75;64274.66;5053071;28;20229;-55
2023/12/02 00:06:47;;;;;;;4.83;2.63;;;;;;;12.63;99.31;64277.38;5052748;28;20213;-55
2023/12/02 00:09:12;;;;;;;4.50;2.57;;;;;;;12.75;97.94;64290.00;5052680;28;20206;-55
2023/12/02 00:11:38;;;;;;;5.87;2.77;;;;;;;12.68;99.40;64279.81;5052628;28;20209;-55
2023/12/02 00:14:04;;;;;;;5.00;2.40;;;;;;;12.91;97.44;64305.56;5052766;28;20201;-55
2023/12/02 00:16:29;;;;;;;9.48;2.80;;;;;;;12.89;98.53;64307.91;5035073;28;20732;-60
2023/12/02 00:18:55;;;;;;;4.63;3.23;;;;;;;12.64;100.00;64275.97;5052660;28;20214;-53
2023/12/02 00:21:21;;;;;;;3.47;2.50;;;;;;;12.29;100.00;64240.66;5034665;28;20239;-54
2023/12/02 00:24:05;;;;;;;5.07;2.30;;;;;;;12.27;100.00;64235.94;5052663;28;20205;-57
2023/12/02 00:26:31;;;;;;;7.73;2.73;;;;;;;12.59;100.00;64273.00;5034540;28;20205;-54
2023/12/02 00:28:57;;;;;;;4.17;2.40;;;;;;;12.73;98.95;64290.34;5034566;28;20206;-53
2023/12/02 00:31:22;;;;;;;4.93;2.80;;;;;;;12.78;98.97;64291.31;5052404;28;20266;-56
2023/12/02 00:33:48;;;;;;;5.43;2.50;;;;;;;12.68;99.62;64280.34;5052241;28;20208;-55
2023/12/02 00:36:13;;;;;;;6.23;2.83;;;;;;;12.84;91.72;64302.41;5052200;28;20208;-56
2023/12/02 00:38:38;;;;;;;6.23;2.63;;;;;;;13.01;92.24;64314.00;5034451;28;20213;-56
2023/12/02 00:41:04;;;;;;;6.77;2.40;;;;;;;13.11;93.07;64327.00;5052288;28;20741;-54
2023/12/02 00:43:30;;;;;;;5.20;2.53;;;;;;;13.15;93.03;64333.94;5052357;28;20672;-54
2023/12/02 00:45:56;;;;;;;7.27;2.43;;;;;;;13.13;92.77;64331.72;5052026;28;20588;-55
2023/12/02 00:48:21;;;;;;;6.90;3.17;;;;;;;13.03;94.56;64321.28;5051221;28;20208;-55
2023/12/02 00:50:47;;;;;;;6.00;3.20;;;;;;;12.93;97.08;64307.25;5052233;28;20202;-55
2023/12/02 00:53:13;;;;;;;7.70;2.33;;;;;;;12.88;99.10;64301.75;5034037;28;20214;-55
2023/12/02 00:55:38;;;;;;;5.50;2.03;;;;;;;12.64;100.00;64276.50;5052273;28;20205;-55
2023/12/02 00:58:04;;;;;;;8.13;2.87;;;;;;;12.58;100.00;64269.38;5051831;28;20271;-55
2023/12/02 01:00:29;;;;;;;4.73;1.80;;;;;;;12.32;100.00;64240.88;5034350;28;20217;-55
2023/12/02 01:02:55;;;;;;;5.03;2.10;;;;;;;12.29;100.00;64237.59;5052008;28;20205;-54
2023/12/02 01:05:20;;;;;;;4.83;1.60;;;;;;;12.55;100.00;64268.63;5051955;28;20259;-55
2023/12/02 01:07:46;;;;;;;8.73;2.40;;;;;;;12.53;100.00;64264.44;5051791;28;20310;-54
2023/12/02 01:10:15;;;;;;;6.47;2.23;;;;;;;12.42;100.00;64254.91;5051827;28;20217;-56
2023/12/02 01:12:40;;;;;;;7.53;2.40;;;;;;;12.12;100.00;64221.47;5051693;28;20211;-55
2023/12/02 01:15:06;;;;;;;3.73;2.00;;;;;;;12.32;100.00;64243.41;5034013;28;20201;-54
2023/12/02 01:17:32;;;;;;;4.10;2.33;;;;;;;12.53;100.00;64263.91;5051315;28;20213;-54
2023/12/02 01:19:57;;;;;;;4.03;1.83;;;;;;;12.61;100.00;64275.19;5051651;28;20272;-54
2023/12/02 01:22:23;;;;;;;7.97;2.43;;;;;;;12.42;100.00;64251.84;5051729;28;20255;-54
2023/12/02 01:24:48;;;;;;;4.13;2.37;;;;;;;12.52;100.00;64262.81;5051832;28;20209;-55
2023/12/02 01:27:14;;;;;;;9.07;2.27;;;;;;;12.49;100.00;64262.03;5051853;28;20201;-53
2023/12/02 01:29:39;;;;;;;4.23;2.13;;;;;;;12.30;100.00;64243.75;5051727;28;20204;-53
2023/12/02 01:32:05;;;;;;;5.10;2.07;;;;;;;12.43;100.00;64252.94;5051455;28;20201;-53
2023/12/02 01:34:31;;;;;;;6.53;3.30;;;;;;;12.45;100.00;64258.19;5051632;28;20213;-53
2023/12/02 01:36:57;;;;;;;6.77;2.27;;;;;;;12.48;100.00;64260.94;5051239;28;20264;-54
2023/12/02 01:39:22;;;;;;;6.90;2.87;;;;;;;12.40;100.00;64252.19;5051761;28;20660;-53
2023/12/02 01:41:48;;;;;;;2.20;1.87;;;;;;;12.29;100.00;64243.19;5051314;28;20215;-53
2023/12/02 01:44:14;;;;;;;5.00;2.63;;;;;;;12.11;100.00;64218.41;5051703;28;20302;-52
2023/12/02 01:46:39;;;;;;;6.40;2.00;;;;;;;11.97;100.00;64202.50;5033332;28;20726;-53
2023/12/02 01:49:07;;;;;;;4.23;1.77;;;;;;;12.11;100.00;64218.41;5051646;28;20189;-53
2023/12/02 01:51:34;;;;;;;6.07;1.87;;;;;;;12.26;100.00;64236.81;5051264;28;20197;-52
2023/12/02 01:53:59;;;;;;;3.63;1.87;;;;;;;12.30;100.00;64238.69;5033355;28;20216;-52
2023/12/02 01:56:26;;;;;;;2.47;1.90;;;;;;;12.48;100.00;64261.47;5051247;28;20381;-53
2023/12/02 01:58:51;;;;;;;4.27;2.30;;;;;;;12.62;100.00;64273.78;5051264;28;20252;-55
2023/12/02 02:01:18;;;;;;;6.67;2.30;;;;;;;12.38;100.00;64250.53;5050686;28;20280;-56
2023/12/02 02:03:43;;;;;;;8.43;2.60;;;;;;;12.38;100.00;64249.97;5050822;28;20221;-57
2023/12/02 02:06:10;;;;;;;7.73;2.10;;;;;;;12.41;100.00;64253.81;5050843;28;20201;-56
2023/12/02 02:08:36;;;;;;;5.50;2.90;;;;;;;12.38;100.00;64250.53;5050959;28;20340;-57
2023/12/02 02:11:02;;;;;;;5.33;2.40;;;;;;;12.25;100.00;64230.66;5050851;28;20232;-55
2023/12/02 02:13:28;;;;;;;5.53;2.30;;;;;;;12.03;100.00;64211.59;5050941;28;20233;-55
2023/12/02 02:15:56;;;;;;;5.70;1.80;;;;;;;11.90;100.00;64197.91;5050848;28;20205;-56
2023/12/02 02:18:21;;;;;;;19.03;2.53;;;;;;;12.07;100.00;64216.00;5050923;28;20283;-57
2023/12/02 02:20:51;;;;;;;3.67;2.00;;;;;;;12.05;100.00;64216.88;5051105;28;20702;-55
2023/12/02 02:23:21;;;;;;;11.53;1.93;;;;;;;11.96;100.00;64206.47;5050944;28;20255;-52
2023/12/02 02:25:52;;;;;;;5.90;1.77;;;;;;;11.86;100.00;64192.97;5051221;28;20202;-54
2023/12/02 02:28:21;;;;;;;4.17;1.90;;;;;;;12.02;100.00;64211.06;5051027;28;20205;-54
2023/12/02 02:30:47;;;;;;;5.83;2.10;;;;;;;11.71;100.00;64174.56;5050606;28;20193;-53
2023/12/02 02:33:13;;;;;;;3.73;1.73;;;;;;;11.91;100.00;64200.97;5050963;28;20214;-54
2023/12/02 02:35:38;;;;;;;12.07;1.83;;;;;;;12.00;100.00;64210.84;5049741;28;20699;-57
2023/12/02 02:38:04;;;;;;;4.93;1.87;;;;;;;12.18;100.00;64225.53;5050323;28;20668;-54
2023/12/02 02:40:29;;;;;;;7.00;2.20;;;;;;;12.13;100.00;64222.56;5050271;28;20288;-53
2023/12/02 02:42:56;;;;;;;4.23;1.97;;;;;;;12.23;100.00;64233.53;5051026;28;20206;-55
2023/12/02 02:45:28;;;;;;;7.60;1.83;;;;;;;12.29;100.00;64240.66;5032485;28;20244;-55
2023/12/02 02:47:53;;;;;;;5.20;1.70;;;;;;;12.31;100.00;64239.78;5049617;28;20236;-56
2023/12/02 02:50:19;;;;;;;5.93;2.30;;;;;;;12.42;100.00;64254.91;5032214;28;20201;-56
2023/12/02 02:52:46;;;;;;;4.37;1.80;;;;;;;12.45;100.00;64260.19;5050434;28;20624;-56
2023/12/02 02:55:11;;;;;;;5.33;1.53;;;;;;;12.57;100.00;64268.28;5050264;28;20193;-55
2023/12/02 02:57:37;;;;;;;4.93;2.10;;;;;;;12.33;100.00;64245.03;5050284;28;20205;-55
2023/12/02 03:00:09;;;;;;;4.17;2.27;;;;;;;12.51;100.00;64264.22;5050339;28;20243;-55
2023/12/02 03:02:38;;;;;;;3.97;1.40;;;;;;;12.59;98.25;64273.56;5050556;28;20210;-55
2023/12/02 03:05:04;;;;;;;3.83;2.13;;;;;;;12.65;97.03;64280.13;5032574;28;20201;-56
2023/12/02 03:07:31;;;;;;;1.83;1.53;;;;;;;12.82;94.56;64295.72;5049928;28;20233;-56
2023/12/02 03:09:57;;;;;;;3.30;1.50;;;;;;;13.03;93.45;64320.75;5049992;28;20221;-55
2023/12/02 03:12:26;;;;;;;5.20;1.60;;;;;;;12.98;94.21;64313.25;5051422;28;20675;-55
2023/12/02 03:14:53;;;;;;;7.73;2.17;;;;;;;12.65;96.51;64277.06;5053679;28;20216;-54
2023/12/02 03:17:19;;;;;;;2.57;1.53;;;;;;;12.66;96.50;64278.16;5053596;28;20240;-54
2023/12/02 03:19:44;;;;;;;6.07;3.33;;;;;;;12.52;97.62;64260.28;5053613;28;20256;-54
2023/12/02 03:22:10;;;;;;;4.60;1.83;;;;;;;12.30;97.94;64238.69;5053731;28;20280;-55
2023/12/02 03:24:36;;;;;;;4.63;1.93;;;;;;;12.44;97.96;64256.56;5053661;28;20209;-60
2023/12/02 03:27:02;;;;;;;4.23;1.87;;;;;;;12.31;99.25;64242.84;5053526;28;20583;-56
2023/12/02 03:29:28;;;;;;;4.53;1.97;;;;;;;12.03;100.00;64209.06;5053506;28;20564;-54
2023/12/02 03:31:54;;;;;;;8.67;2.10;;;;;;;12.28;99.73;64241.53;5053793;28;20202;-53
2023/12/02 03:34:19;;;;;;;8.47;2.47;;;;;;;11.99;100.00;64207.22;5052092;28;20213;-53
2023/12/02 03:36:45;;;;;;;5.53;1.63;;;;;;;12.11;99.92;64220.94;5051399;28;20209;-52
2023/12/02 03:39:12;;;;;;;4.47;1.60;;;;;;;12.20;98.44;64227.72;5053233;28;20679;-55
2023/12/02 03:41:40;;;;;;;3.37;1.83;;;;;;;12.20;97.96;64230.78;5035208;28;20374;-52
2023/12/02 03:44:05;;;;;;;5.03;2.13;;;;;;;12.12;99.49;64221.47;5052028;28;20718;-53
2023/12/02 03:46:30;;;;;;;3.37;2.20;;;;;;;11.97;100.00;64202.50;5052986;28;20201;-53
2023/12/02 03:48:57;;;;;;;4.27;1.60;;;;;;;12.01;100.00;64206.88;5035135;28;20224;-53
2023/12/02 03:51:23;;;;;;;6.73;1.70;;;;;;;12.02;99.27;64211.06;5035141;28;20201;-53
2023/12/02 03:53:48;;;;;;;11.27;1.97;;;;;;;12.13;98.88;64222.56;5053093;28;20323;-55
2023/12/02 03:56:14;;;;;;;3.07;1.40;;;;;;;12.27;98.63;64237.91;5052801;28;20591;-55
2023/12/02 03:58:40;;;;;;;4.17;1.73;;;;;;;12.25;97.88;64233.19;5053099;28;20243;-55
2023/12/02 04:01:06;;;;;;;6.10;1.90;;;;;;;12.14;96.58;64221.16;5035153;28;20307;-54
2023/12/02 04:03:33;;;;;;;10.07;2.00;;;;;;;12.26;97.41;64239.34;5052848;28;20662;-53
2023/12/02 04:05:59;;;;;;;2.73;1.53;;;;;;;12.22;95.38;64232.44;5052760;28;20181;-55
2023/12/02 04:08:24;;;;;;;6.13;1.83;;;;;;;12.27;96.88;64238.47;5052784;28;20209;-57
2023/12/02 04:10:50;;;;;;;4.40;1.53;;;;;;;12.20;97.49;64230.78;5053178;28;20583;-55
2023/12/02 04:13:16;;;;;;;6.97;1.63;;;;;;;12.16;95.70;64223.88;5052870;28;20210;-54
2023/12/02 04:15:41;;;;;;;6.83;1.67;;;;;;;12.30;95.27;64241.75;5052848;28;20198;-54
2023/12/02 04:18:07;;;;;;;3.33;1.90;;;;;;;12.37;94.91;64246.91;5052541;28;20213;-54
2023/12/02 04:20:32;;;;;;;6.17;1.83;;;;;;;12.26;95.82;64239.34;5051377;28;20224;-56
2023/12/02 04:22:58;;;;;;;5.50;1.70;;;;;;;12.34;94.65;64243.06;5034524;28;20213;-54
2023/12/02 04:25:24;;;;;;;3.77;1.87;;;;;;;12.14;96.21;64221.69;5052400;28;20289;-55
2023/12/02 04:27:49;;;;;;;2.22;1.52;;;;;;;12.34;94.90;64243.06;5034652;28;20237;-54
2023/12/02 04:30:16;;;;;;;6.17;2.47;;;;;;;12.22;95.08;64234.97;5052804;28;20213;-53
2023/12/02 04:32:41;;;;;;;7.03;2.23;;;;;;;11.86;97.12;64192.97;5052320;28;20220;-54
2023/12/02 04:35:08;;;;;;;3.70;1.37;;;;;;;12.08;96.16;64217.09;5052460;28;20213;-54
2023/12/02 04:37:34;;;;;;;3.60;1.63;;;;;;;12.38;91.98;64249.97;5052228;28;20202;-55
2023/12/02 04:40:01;;;;;;;4.10;1.93;;;;;;;12.36;93.70;64245.25;5034663;28;20266;-52
2023/12/02 04:42:26;;;;;;;10.03;1.90;;;;;;;12.66;88.98;64281.22;5052211;28;20201;-53
2023/12/02 04:44:52;;;;;;;5.00;1.63;;;;;;;12.66;89.22;64280.69;5052344;28;20212;-54
2023/12/02 04:47:17;;;;;;;4.70;1.70;;;;;;;12.47;92.26;64257.88;5052221;28;20205;-53
2023/12/02 04:49:43;;;;;;;7.13;1.63;;;;;;;12.59;91.60;64273.00;5052690;28;20602;-53
2023/12/02 04:52:08;;;;;;;9.10;1.90;;;;;;;12.52;92.36;64267.88;5051918;28;20713;-52
2023/12/02 04:54:34;;;;;;;4.63;1.73;;;;;;;12.43;92.87;64252.94;5052134;28;20222;-51
2023/12/02 04:57:01;;;;;;;5.33;1.80;;;;;;;12.29;95.20;64240.09;5051947;28;20209;-53
2023/12/02 04:59:26;;;;;;;4.50;2.17;;;;;;;12.49;94.23;64262.59;5051898;28;20230;-53
2023/12/02 05:01:52;;;;;;;4.73;2.37;;;;;;;12.26;95.40;64237.34;5052232;28;20345;-52
2023/12/02 05:04:18;;;;;;;4.10;1.80;;;;;;;12.17;96.28;64226.94;5051630;28;20210;-54
2023/12/02 05:06:44;;;;;;;2.53;1.87;;;;;;;12.36;97.02;64248.31;5064581;22;20217;-53
2023/12/02 05:09:10;;;;;;;16.40;2.23;;;;;;;12.38;96.15;64248.00;5071709;28;20201;-53
2023/12/02 05:11:35;;;;;;;2.70;1.53;;;;;;;12.41;94.08;64251.28;5068847;28;20694;-53
2023/12/02 05:14:01;;;;;;;6.40;1.60;;;;;;;12.20;97.68;64230.25;5051679;28;20295;-52
2023/12/02 05:16:27;;;;;;;5.60;1.70;;;;;;;12.34;96.53;64245.59;5033886;28;20315;-52
2023/12/02 05:18:52;;;;;;;6.40;1.73;;;;;;;12.42;94.66;64254.91;5051683;28;20290;-53
2023/12/02 05:21:18;;;;;;;4.33;2.00;;;;;;;12.32;96.91;64240.88;5034050;28;20194;-52
2023/12/02 05:23:44;;;;;;;6.90;2.13;;;;;;;12.34;95.19;64246.13;5033968;28;20562;-53
2023/12/02 05:26:10;;;;;;;6.40;3.10;;;;;;;12.53;93.40;64263.91;5051490;28;20197;-53
2023/12/02 05:28:37;;;;;;;4.47;1.83;;;;;;;12.88;85.71;64301.75;5051317;28;20347;-53
2023/12/02 05:31:03;;;;;;;3.90;1.60;;;;;;;12.84;89.32;64300.44;5051459;28;20201;-53
2023/12/02 05:33:36;;;;;;;3.47;1.67;;;;;;;12.66;89.76;64281.22;5051662;28;20213;-52
2023/12/02 05:36:02;;;;;;;5.50;1.40;;;;;;;12.87;85.69;64301.19;5034042;28;20197;-54
2023/12/02 05:38:28;;;;;;;4.40;1.70;;;;;;;12.85;88.89;64299.00;5033580;28;20221;-53
2023/12/02 05:40:53;;;;;;;4.77;1.80;;;;;;;12.62;91.03;64273.78;5051553;28;20591;-53
2023/12/02 05:43:19;;;;;;;7.23;1.93;;;;;;;12.69;91.14;64281.44;5051495;28;20597;-53
2023/12/02 05:45:44;;;;;;;3.37;2.17;;;;;;;12.68;90.96;64283.41;5051004;28;20206;-53
2023/12/02 05:48:10;;;;;;;4.17;2.00;;;;;;;12.61;93.09;64272.66;5051118;28;20218;-52
2023/12/02 05:50:35;;;;;;;2.90;2.03;;;;;;;12.72;92.86;64284.19;5051453;28;20206;-52
2023/12/02 05:53:03;;;;;;;2.77;2.00;;;;;;;12.40;95.68;64252.19;5051518;28;20205;-52
2023/12/02 05:55:28;;;;;;;6.23;2.07;;;;;;;12.20;97.20;64228.25;5051037;28;20201;-53
2023/12/02 05:57:54;;;;;;;5.60;1.87;;;;;;;12.48;95.30;64260.94;5051577;28;20251;-54
2023/12/02 06:00:20;;;;;;;5.40;2.23;;;;;;;12.56;96.34;64270.25;5033152;28;20221;-56
2023/12/02 06:02:45;;;;;;;5.70;2.10;;;;;;;12.46;96.83;64258.75;5051358;28;20305;-52
2023/12/02 06:05:11;;;;;;;6.30;1.47;;;;;;;12.71;92.64;64285.63;5033302;28;20275;-52
2023/12/02 06:07:37;;;;;;;6.50;2.00;;;;;;;12.75;91.80;64290.56;5051370;28;20217;-53
2023/12/02 06:10:02;;;;;;;2.80;1.53;;;;;;;12.79;93.11;64292.41;5050928;28;20282;-53
2023/12/02 06:12:28;;;;;;;5.57;1.93;;;;;;;12.74;92.95;64286.94;5032852;28;20209;-52
2023/12/02 06:14:54;;;;;;;2.97;1.80;;;;;;;12.66;92.29;64276.16;5032977;28;20731;-53
2023/12/02 06:17:19;;;;;;;5.27;1.80;;;;;;;12.72;91.73;64287.28;5050490;28;20209;-52
2023/12/02 06:19:45;;;;;;;6.60;2.10;;;;;;;12.66;93.33;64280.69;5050550;28;20217;-53
2023/12/02 06:22:10;;;;;;;4.83;1.83;;;;;;;12.68;93.40;64279.81;5050749;28;20213;-52
2023/12/02 06:24:36;;;;;;;3.47;2.10;;;;;;;12.92;91.16;64306.13;5051008;28;20208;-53
2023/12/02 06:27:02;;;;;;;3.30;2.03;;;;;;;12.84;91.98;64299.88;5050908;28;20734;-54
2023/12/02 06:29:28;;;;;;;10.00;3.20;;;;;;;13.10;88.96;64330.97;5050509;28;20284;-58
2023/12/02 06:31:54;;;;;;;3.70;2.70;;;;;;;13.37;84.85;64356.06;5050665;28;20209;-53
2023/12/02 06:34:19;;;;;;;4.22;2.28;;;;;;;13.21;84.03;64341.03;5050652;28;20586;-54
2023/12/02 06:36:44;;;;;;;4.93;2.38;;;;;;;13.18;84.44;64335.22;5050317;28;20275;-60
2023/12/02 06:39:13;;;;;;;3.87;1.87;;;;;;;12.89;85.57;64302.84;5050474;28;20284;-55
2023/12/02 06:41:41;;;;;;;6.32;2.38;;;;;;;12.56;87.99;64267.19;5050487;28;20213;-54
2023/12/02 06:44:09;;;;;;;3.97;2.00;;;;;;;12.60;86.79;64274.13;5032600;28;20208;-55
2023/12/02 06:46:35;;;;;;;4.25;2.10;;;;;;;12.77;85.15;64290.22;5050756;28;20209;-56
2023/12/02 06:49:01;;;;;;;6.07;2.10;;;;;;;12.65;86.70;64282.66;5053923;28;20740;-55
2023/12/02 06:51:29;;;;;;;3.13;1.63;;;;;;;12.71;87.05;64285.63;5053779;28;20200;-53
2023/12/02 06:54:13;;;;;;;3.80;1.43;;;;;;;12.96;83.98;64313.59;5054037;28;20189;-53
2023/12/02 06:56:39;;;;;;;5.70;1.93;;;;;;;13.04;83.66;64321.84;5054104;28;20213;-51
2023/12/02 06:59:04;;;;;;;6.63;2.47;;;;;;;12.82;85.37;64297.69;5054280;28;20220;-53
2023/12/02 07:01:31;;;;;;;4.13;2.40;;;;;;;12.94;85.19;64311.41;5053512;28;20683;-55
2023/12/02 07:03:58;;;;;;;5.17;2.00;;;;;;;13.14;82.71;64327.75;5035953;28;20567;-53
2023/12/02 07:06:25;;;;;;;5.13;1.57;;;;;;;13.13;84.13;64331.72;5035629;28;20216;-54
2023/12/02 07:08:52;;;;;;;3.70;1.50;;;;;;;13.18;81.26;64332.69;5053695;28;20201;-53
2023/12/02 07:11:17;;;;;;;4.93;1.53;;;;;;;13.26;82.18;64346.53;5053518;28;20189;-52
2023/12/02 07:13:43;;;;;;;2.00;1.30;;;;;;;13.31;81.65;64348.97;5053814;28;20714;-53
2023/12/02 07:16:10;;;;;;;4.40;2.27;;;;;;;13.35;80.25;64355.88;5053886;28;20253;-53
2023/12/02 07:18:36;;;;;;;3.00;1.73;;;;;;;13.31;80.85;64352.00;5053506;28;20690;-54
2023/12/02 07:21:01;;;;;;;5.30;1.57;;;;;;;13.44;79.80;64365.75;5053336;28;20197;-53
2023/12/02 07:23:28;;;;;;;4.10;1.80;;;;;;;13.33;82.90;64351.69;5053171;28;20213;-53
2023/12/02 07:25:55;;;;;;;4.97;1.90;;;;;;;13.38;80.45;64356.63;5053780;28;20280;-54
2023/12/02 07:28:21;;;;;;;7.57;2.70;;;;;;;13.43;80.51;64364.66;5053768;28;20214;-55
2023/12/02 07:30:48;;;;;;;3.63;2.13;;;;;;;13.30;80.71;64347.84;5053223;28;20193;-54
2023/12/02 07:33:14;;;;;;;4.50;1.63;;;;;;;13.45;78.66;64364.31;5035572;28;20205;-53
2023/12/02 07:35:39;;;;;;;3.80;2.17;;;;;;;13.45;77.47;64364.84;5035354;28;20209;-54
2023/12/02 07:38:06;;;;;;;4.70;2.10;;;;;;;13.52;76.89;64373.97;5053234;28;20213;-52
2023/12/02 07:40:33;;;;;;;6.27;2.53;;;;;;;13.58;77.52;64380.56;5053332;28;20304;-53
2023/12/02 07:42:59;;;;;;;12.37;3.47;;;;;;;13.42;78.90;64364.09;5035182;28;20217;-53
2023/12/02 07:45:25;;;;;;;5.82;2.47;;;;;;;13.40;78.30;64361.91;5052946;28;20296;-52
2023/12/02 07:47:50;;;;;;;3.70;1.85;;;;;;;13.42;77.17;64366.63;5052858;28;20237;-54
2023/12/02 07:50:16;;;;;;;4.65;2.10;;;;;;;13.41;77.89;64363.00;5053404;28;20545;-55
2023/12/02 07:52:42;;;;;;;2.92;1.85;;;;;;;13.37;78.61;64355.53;5053190;28;20205;-52
2023/12/02 07:55:08;;;;;;;12.52;6.15;;;;;;;13.12;80.22;64330.63;5052788;28;20224;-54
2023/12/02 07:57:34;;;;;;;4.18;2.33;;;;;;;13.13;78.82;64331.72;5052930;28;20292;-55
2023/12/02 07:59:59;;;;;;;5.47;2.45;;;;;;;13.16;78.39;64338.09;5053285;28;20300;-54
2023/12/02 08:02:26;;;;;;;6.93;2.70;;;;;;;13.31;78.68;64352.00;5052996;28;20557;-54
2023/12/02 08:04:52;;;;;;;12.27;3.33;;;;;;;13.39;79.23;64360.81;5052686;28;20208;-57
2023/12/02 08:07:18;;;;;;;6.32;2.78;;;;;;;13.15;78.51;64333.94;5051479;28;20209;-55
2023/12/02 08:09:44;;;;;;;4.67;2.17;;;;;;;13.26;78.96;64346.00;5034073;28;20371;-55
2023/12/02 08:12:10;;;;;;;5.93;2.42;;;;;;;13.22;79.46;64339.63;5052792;28;20295;-54
2023/12/02 08:14:36;;;;;;;3.15;2.25;;;;;;;13.31;78.55;64354.00;5052626;28;20744;-53
2023/12/02 08:17:02;;;;;;;5.50;2.30;;;;;;;13.27;80.77;64347.63;5052588;28;20213;-53
2023/12/02 08:19:28;;;;;;;10.90;3.50;;;;;;;13.58;83.58;64378.59;5034739;28;20224;-54
2023/12/02 08:21:54;;;;;;;11.23;2.70;;;;;;;13.54;80.35;64376.72;5052336;28;20213;-53
2023/12/02 08:24:20;;;;;;;8.40;4.20;;;;;;;13.33;80.91;64351.69;5052452;28;20209;-53
2023/12/02 08:26:49;;;;;;;7.00;3.67;;;;;;;13.44;79.01;64366.28;5034699;28;20220;-54
2023/12/02 08:29:15;;;;;;;5.65;3.10;;;;;;;13.49;79.60;64374.31;5053160;28;20203;-54
2023/12/02 08:31:41;;;;;;;5.75;2.53;;;;;;;13.53;79.57;64372.53;5052105;28;20208;-55
2023/12/02 08:34:06;;;;;;;7.82;3.33;;;;;;;13.42;80.88;64363.53;5052421;28;20205;-54
2023/12/02 08:36:32;;;;;;;9.75;3.10;;;;;;;13.40;80.52;64361.91;5052569;28;20238;-58
2023/12/02 08:38:57;;;;;;;11.10;3.10;;;;;;;13.39;83.51;64357.72;5052390;28;20217;-55
2023/12/02 08:41:23;;;;;;;6.18;2.28;;;;;;;13.43;81.99;64365.19;5034478;28;20197;-54
2023/12/02 08:43:48;;;;;;;6.27;2.27;;;;;;;13.52;81.40;64373.97;5052214;28;20201;-54
2023/12/02 08:46:18;;;;;;;4.93;1.88;;;;;;;13.56;82.05;64378.38;5052042;28;20220;-55
2023/12/02 08:48:44;;;;;;;7.22;2.15;;;;;;;13.56;84.86;64376.38;5052204;28;20213;-54
2023/12/02 08:51:11;;;;;;;13.82;2.20;;;;;;;13.68;80.07;64389.56;5034150;28;20239;-54
2023/12/02 08:53:37;;;;;;;5.57;2.30;;;;;;;13.77;79.25;64401.97;5051856;28;20772;-54
2023/12/02 08:56:02;;;;;;;13.52;2.70;;;;;;;13.85;78.67;64410.75;5051899;28;20197;-57
2023/12/02 08:58:28;;;;;;;10.18;2.35;;;;;;;13.79;80.24;64401.09;5051706;28;20235;-55
2023/12/02 09:00:54;;;;;;;9.10;2.78;;;;;;;13.76;82.26;64400.88;5052202;28;20553;-55
2023/12/02 09:03:20;;;;;;;8.35;2.58;;;;;;;13.74;81.63;64395.59;5052136;28;20513;-55
2023/12/02 09:05:45;;;;;;;5.57;2.10;;;;;;;13.70;76.81;64391.75;5051916;28;20272;-54
2023/12/02 09:08:11;;;;;;;6.97;2.38;;;;;;;13.89;74.38;64412.06;5051993;28;20217;-54
2023/12/02 09:10:38;;;;;;;6.78;2.53;;;;;;;13.91;75.36;64416.81;5050737;28;20208;-54
2023/12/02 09:13:32;;;;;;;7.43;2.70;;;;;;;14.11;72.59;64441.31;5051847;28;20209;-55
2023/12/02 09:16:00;;;;;;;11.15;3.22;;;;;;;14.25;72.80;64454.16;5044116;28;20209;-58
2023/12/02 09:18:33;;;;;;;13.30;3.10;;;;;;;14.24;74.50;64451.06;5051582;28;20225;-59
2023/12/02 09:20:58;;;;;;;4.68;3.00;;;;;;;14.30;73.35;64460.19;5052168;28;20253;-56
2023/12/02 09:23:24;;;;;;;6.70;3.50;;;;;;;14.17;72.14;64445.91;5051726;28;20586;-55
2023/12/02 09:25:53;;;;;;;4.43;2.67;;;;;;;14.37;69.75;64464.25;5051886;28;20592;-55
2023/12/02 09:28:21;;;;;;;6.78;3.35;;;;;;;14.94;66.96;64524.38;5051831;28;20711;-54
2023/12/02 09:31:06;;;;;;;10.38;3.40;;;;;;;15.50;65.28;64587.94;5051685;28;20205;-54
2023/12/02 09:33:34;;;;;;;5.15;2.70;;;;;;;15.99;61.37;64644.41;5050976;28;20286;-54
2023/12/02 09:36:01;;;;;;;6.65;3.05;;;;;;;16.67;60.18;64716.72;5051302;28;20204;-53
2023/12/02 09:38:28;;;;;;;10.38;4.35;;;;;;;17.11;55.54;64761.56;5051301;28;20312;-54
2023/12/02 09:41:24;;;;;;;5.65;3.33;;;;;;;17.24;55.29;64778.41;5051605;28;20255;-53
2023/12/02 09:43:50;;;;;;;7.68;3.67;;;;;;;17.37;55.25;64793.28;5051462;28;20189;-55
2023/12/02 09:46:47;;;;;;;8.60;4.25;;;;;;;16.68;56.72;64720.38;5051598;28;20205;-53
2023/12/02 09:49:36;;;;;;;10.65;3.53;;;;;;;16.86;59.06;64734.00;5007308;28;20222;-54
2023/12/02 09:52:18;;;;;;;9.10;3.80;;;;;;;16.59;59.69;64707.94;5051047;28;20263;-54
2023/12/02 09:55:09;;;;;;;3.97;2.65;;;;;;;16.61;58.60;64710.13;5051149;28;20194;-53
2023/12/02 09:58:07;;;;;;;9.15;3.90;;;;;;;17.12;56.50;64765.75;5051134;28;20217;-53
2023/12/02 10:00:57;;;;;;;7.57;3.85;;;;;;;17.64;54.18;64822.50;5017439;28;20279;-53
2023/12/02 10:03:38;;;;;;;11.45;4.53;;;;;;;17.76;53.86;64835.72;5050801;28;20221;-54
2023/12/02 10:06:10;;;;;;;10.85;3.47;;;;;;;17.82;54.79;64842.34;5033154;28;20201;-53
2023/12/02 10:09:12;;;;;;;13.35;4.25;;;;;;;17.39;54.14;64792.41;5051208;28;20209;-55
2023/12/02 10:12:13;;;;;;;10.70;3.88;;;;;;;17.78;54.10;64837.38;5050820;28;20223;-61
2023/12/02 10:14:41;;;;;;;15.05;4.57;;;;;;;18.14;53.16;64877.09;5035722;28;20228;-57
2023/12/02 10:17:10;;;;;;;7.22;3.63;;;;;;;18.38;51.63;64903.56;5033041;28;20214;-56
2023/12/02 10:19:55;;;;;;;17.33;4.70;;;;;;;18.05;52.62;64867.16;5050559;28;20695;-54
2023/12/02 10:22:26;;;;;;;12.52;4.75;;;;;;;18.20;53.64;64884.25;5050826;28;20220;-55
2023/12/02 10:25:01;;;;;;;12.73;3.65;;;;;;;17.86;52.77;64846.75;5050567;28;20202;-55
2023/12/02 10:27:29;;;;;;;14.18;4.10;;;;;;;17.71;54.50;64827.69;5050811;28;20221;-55
2023/12/02 10:30:13;;;;;;;9.95;4.07;;;;;;;17.49;55.04;64806.00;5050425;28;20209;-54
2023/12/02 10:32:45;;;;;;;7.00;3.78;;;;;;;17.46;56.25;64802.66;5051131;28;20216;-53
2023/12/02 10:35:20;;;;;;;7.82;2.60;;;;;;;17.44;55.44;64800.44;5050619;28;20208;-53
2023/12/02 10:38:03;;;;;;;7.63;3.00;;;;;;;17.08;56.18;64763.88;5050320;28;20300;-54
2023/12/02 10:40:30;;;;;;;9.25;2.50;;;;;;;16.87;55.22;64740.22;5050497;28;20245;-52
2023/12/02 10:43:15;;;;;;;6.03;2.78;;;;;;;16.92;55.16;64743.16;5050588;28;20205;-53
2023/12/02 10:45:41;;;;;;;8.82;3.30;;;;;;;16.65;55.42;64717.06;5050708;28;20201;-53
2023/12/02 10:48:11;;;;;;;8.18;3.00;;;;;;;16.72;55.96;64724.78;5050556;28;20213;-53
2023/12/02 10:50:39;;;;;;;9.57;3.42;;;;;;;16.88;54.26;64739.31;5032371;28;20240;-52
2023/12/02 10:53:04;;;;;;;12.00;4.40;;;;;;;16.76;55.22;64726.66;5050354;28;20213;-52
2023/12/02 10:55:38;;;;;;;15.10;3.90;;;;;;;16.65;53.14;64714.53;5050528;28;20741;-52
2023/12/02 10:58:06;;;;;;;5.82;2.00;;;;;;;16.65;51.71;64714.53;5050419;28;20715;-52
2023/12/02 11:00:39;;;;;;;9.60;3.45;;;;;;;16.60;52.17;64708.47;5050224;28;20221;-52
2023/12/02 11:03:13;;;;;;;10.85;3.45;;;;;;;16.57;52.80;64708.28;5051040;28;20240;-52
2023/12/02 11:05:47;;;;;;;9.80;4.43;;;;;;;16.54;52.60;64704.41;5050258;28;20196;-60
2023/12/02 11:08:21;;;;;;;12.40;3.90;;;;;;;16.58;52.33;64709.34;5050134;28;20756;-54
2023/12/02 11:10:49;;;;;;;22.55;4.13;;;;;;;16.56;52.22;64707.16;5050091;28;20257;-54
2023/12/02 11:13:20;;;;;;;12.10;3.15;;;;;;;16.60;51.09;64709.00;5050735;28;20259;-54
2023/12/02 11:15:55;;;;;;;10.07;3.60;;;;;;;16.49;51.71;64696.34;5032271;28;20202;-59
2023/12/02 11:18:48;;;;;;;7.47;3.55;;;;;;;16.44;51.30;64690.84;5032383;28;20229;-55
2023/12/02 11:21:27;;;;;;;8.15;3.28;;;;;;;16.47;50.57;64694.13;5032261;28;20220;-57
2023/12/02 11:24:23;;;;;;;10.70;3.75;;;;;;;16.50;51.31;64698.00;5032093;28;20216;-56
2023/12/02 11:27:07;;;;;;;9.32;3.63;;;;;;;16.54;50.30;64701.88;5049800;28;20218;-55
2023/12/02 11:29:54;;;;;;;10.70;3.35;;;;;;;16.54;49.84;64704.94;5049998;28;20162;-61
2023/12/02 11:32:58;;;;;;;6.38;2.53;;;;;;;16.59;46.12;64707.94;5049897;28;20243;-55
2023/12/02 11:36:05;;;;;;;10.07;3.10;;;;;;;16.63;48.63;64712.34;5029675;28;20286;-54
2023/12/02 11:38:35;;;;;;;5.43;3.05;;;;;;;16.74;47.56;64721.91;5022098;28;20214;-55